createdAt,value
2022-10-28T00:01:18.688Z,7.22
2022-10-28T00:03:48.541Z,7.28
2022-10-28T00:06:27.377Z,6.88
2022-10-28T00:08:54.627Z,6.75
2022-10-28T00:11:30.296Z,6.65
2022-10-28T00:14:00.645Z,7.13
2022-10-28T00:16:33.169Z,7.25
2022-10-28T00:19:01.173Z,6.28
2022-10-28T00:21:31.458Z,7.15
2022-10-28T00:23:58.851Z,6.93
2022-10-28T00:26:36.581Z,7.03
2022-10-28T00:29:15.411Z,7.47
2022-10-28T00:31:43.068Z,7.30
2022-10-28T00:34:13.559Z,7.32
2022-10-28T00:36:42.964Z,7.20
2022-10-28T00:39:16.552Z,7.60
2022-10-28T00:41:52.688Z,6.93
2022-10-28T00:44:46.651Z,7.07
2022-10-28T00:47:31.641Z,7.50
2022-10-28T00:50:08.025Z,7.38
2022-10-28T00:52:35.059Z,7.35
2022-10-28T00:55:03.422Z,7.10
2022-10-28T00:57:36.965Z,7.05
2022-10-28T01:00:06.725Z,6.50
2022-10-28T01:02:39.417Z,6.60
2022-10-28T01:05:06.883Z,6.80
2022-10-28T01:07:33.886Z,7.35
2022-10-28T01:10:00.766Z,6.95
2022-10-28T01:12:52.505Z,6.53
2022-10-28T01:15:51.620Z,6.72
2022-10-28T01:18:40.394Z,6.32
2022-10-28T01:21:39.166Z,6.30
2022-10-28T01:24:13.733Z,5.82
2022-10-28T01:26:52.620Z,6.45
2022-10-28T01:29:43.954Z,6.07
2022-10-28T01:32:25.844Z,5.90
2022-10-28T01:35:11.697Z,5.85
2022-10-28T01:38:08.361Z,6.18
2022-10-28T01:41:07.528Z,6.00
2022-10-28T01:43:52.597Z,6.47
2022-10-28T01:46:28.455Z,5.28
2022-10-28T01:49:02.931Z,5.85
2022-10-28T01:51:39.920Z,5.68
2022-10-28T01:54:08.193Z,5.75
2022-10-28T01:56:39.284Z,5.72
2022-10-28T01:59:10.834Z,5.47
2022-10-28T02:01:38.157Z,6.18
2022-10-28T02:04:05.224Z,5.75
2022-10-28T02:06:34.846Z,6.28
2022-10-28T02:09:30.164Z,6.40
2022-10-28T02:12:18.605Z,5.65
2022-10-28T02:17:49.534Z,6.63
2022-10-28T02:20:35.076Z,5.70
2022-10-28T02:23:37.905Z,6.25
2022-10-28T02:26:31.984Z,5.60
2022-10-28T02:29:14.088Z,5.78
2022-10-28T02:31:49.222Z,5.15
2022-10-28T02:34:24.499Z,5.55
2022-10-28T02:36:54.558Z,5.70
2022-10-28T02:39:30.151Z,5.80
2022-10-28T02:42:05.893Z,5.68
2022-10-28T02:44:39.843Z,5.70
2022-10-28T02:47:17.020Z,5.63
2022-10-28T02:49:47.255Z,5.72
2022-10-28T02:52:17.059Z,5.70
2022-10-28T02:54:53.831Z,5.90
2022-10-28T02:57:27.070Z,4.93
2022-10-28T02:59:59.616Z,5.07
2022-10-28T03:02:27.544Z,4.60
2022-10-28T03:04:54.595Z,5.30
2022-10-28T03:07:21.512Z,4.90
2022-10-28T03:09:48.660Z,4.97
2022-10-28T03:12:15.654Z,4.97
2022-10-28T03:14:42.612Z,4.80
2022-10-28T03:17:09.680Z,4.43
2022-10-28T03:19:36.685Z,4.45
2022-10-28T03:22:03.857Z,4.32
2022-10-28T03:24:30.718Z,4.45
2022-10-28T03:26:57.804Z,3.80
2022-10-28T03:29:24.627Z,4.22
2022-10-28T03:31:51.478Z,4.40
2022-10-28T03:34:18.455Z,4.40
2022-10-28T03:36:45.459Z,4.15
2022-10-28T03:39:15.118Z,4.40
2022-10-28T03:41:42.042Z,4.18
2022-10-28T03:44:08.893Z,4.43
2022-10-28T03:46:36.242Z,4.40
2022-10-28T03:49:03.777Z,4.10
2022-10-28T03:51:30.780Z,4.40
2022-10-28T03:53:57.620Z,3.97
2022-10-28T03:56:24.738Z,4.03
2022-10-28T04:01:23.424Z,3.80
2022-10-28T04:03:50.413Z,3.60
2022-10-28T04:06:17.496Z,3.92
2022-10-28T04:08:44.428Z,4.10
2022-10-28T04:11:11.370Z,4.53
2022-10-28T04:13:38.220Z,3.97
2022-10-28T04:16:05.601Z,4.22
2022-10-28T04:18:32.534Z,4.15
2022-10-28T04:20:59.393Z,3.85
2022-10-28T04:23:26.292Z,3.80
2022-10-28T04:25:54.800Z,3.40
2022-10-28T04:28:24.227Z,3.55
2022-10-28T04:30:51.136Z,3.83
2022-10-28T04:33:18.245Z,3.45
2022-10-28T04:35:45.565Z,3.40
2022-10-28T04:38:14.273Z,3.45
2022-10-28T04:40:41.464Z,3.22
2022-10-28T04:43:10.013Z,2.90
2022-10-28T04:45:37.933Z,3.90
2022-10-28T04:48:05.403Z,2.85
2022-10-28T04:50:32.262Z,2.90
2022-10-28T04:53:00.202Z,3.25
2022-10-28T04:55:27.079Z,3.92
2022-10-28T04:57:57.701Z,3.70
2022-10-28T05:00:25.620Z,3.55
2022-10-28T05:02:52.677Z,3.70
2022-10-28T05:05:20.373Z,3.22
2022-10-28T05:07:47.316Z,3.50
2022-10-28T05:10:18.298Z,4.00
2022-10-28T05:12:45.990Z,3.67
2022-10-28T05:15:14.199Z,3.00
2022-10-28T05:17:43.701Z,3.95
2022-10-28T05:20:11.836Z,3.03
2022-10-28T05:22:38.671Z,3.15
2022-10-28T05:25:05.753Z,3.10
2022-10-28T05:27:32.637Z,2.80
2022-10-28T05:29:59.509Z,2.95
2022-10-28T05:32:26.351Z,3.80
2022-10-28T05:34:53.180Z,2.55
2022-10-28T05:37:20.026Z,3.28
2022-10-28T05:39:46.950Z,3.42
2022-10-28T05:42:13.753Z,3.25
2022-10-28T05:44:40.816Z,4.15
2022-10-28T05:47:07.745Z,3.90
2022-10-28T05:49:34.620Z,3.90
2022-10-28T05:52:01.935Z,4.45
2022-10-28T05:54:28.937Z,4.00
2022-10-28T05:56:55.800Z,3.50
2022-10-28T05:59:22.638Z,4.30
2022-10-28T06:01:49.598Z,4.93
2022-10-28T06:04:16.731Z,5.13
2022-10-28T06:06:43.664Z,4.05
2022-10-28T06:09:10.722Z,4.07
2022-10-28T06:11:36.064Z,4.43
2022-10-28T06:14:02.880Z,3.97
2022-10-28T06:16:29.800Z,4.28
2022-10-28T06:18:56.937Z,4.95
2022-10-28T06:21:23.865Z,4.60
2022-10-28T06:23:51.207Z,4.00
2022-10-28T06:26:18.334Z,4.22
2022-10-28T06:28:48.218Z,4.15
2022-10-28T06:31:15.105Z,4.30
2022-10-28T06:33:41.900Z,4.28
2022-10-28T06:36:08.852Z,3.88
2022-10-28T06:38:35.728Z,3.55
2022-10-28T06:41:02.674Z,3.70
2022-10-28T06:43:29.597Z,3.75
2022-10-28T06:46:01.047Z,3.55
2022-10-28T06:48:29.623Z,3.40
2022-10-28T06:50:57.699Z,3.20
2022-10-28T06:53:26.134Z,3.25
2022-10-28T06:55:57.350Z,3.35
2022-10-28T06:58:25.443Z,3.28
2022-10-28T07:00:53.950Z,3.75
2022-10-28T07:03:20.995Z,3.55
2022-10-28T07:05:49.374Z,3.50
2022-10-28T07:08:16.931Z,3.55
2022-10-28T07:10:43.781Z,3.55
2022-10-28T07:13:10.606Z,3.88
2022-10-28T07:15:37.566Z,3.95
2022-10-28T07:18:04.574Z,3.78
2022-10-28T07:20:33.003Z,3.28
2022-10-28T07:23:02.837Z,3.55
2022-10-28T07:25:31.768Z,4.32
2022-10-28T07:27:59.451Z,3.92
2022-10-28T07:30:27.923Z,3.40
2022-10-28T07:32:55.230Z,4.32
2022-10-28T07:35:22.351Z,4.40
2022-10-28T07:37:49.175Z,4.00
2022-10-28T07:40:16.318Z,4.38
2022-10-28T07:42:43.276Z,4.13
2022-10-28T07:45:10.186Z,3.65
2022-10-28T07:47:37.000Z,4.35
2022-10-28T07:50:05.159Z,4.63
2022-10-28T07:52:32.080Z,4.05
2022-10-28T07:54:58.851Z,4.50
2022-10-28T07:57:25.776Z,4.22
2022-10-28T07:59:52.664Z,3.92
2022-10-28T08:02:25.780Z,4.88
2022-10-28T08:04:53.181Z,4.93
2022-10-28T08:07:20.748Z,5.53
2022-10-28T08:09:47.554Z,4.60
2022-10-28T08:12:15.612Z,4.97
2022-10-28T08:14:42.797Z,5.00
2022-10-28T08:17:09.992Z,4.90
2022-10-28T08:19:37.268Z,5.10
2022-10-28T08:22:04.491Z,5.78
2022-10-28T08:24:31.451Z,4.95
2022-10-28T08:26:58.296Z,5.07
2022-10-28T08:30:10.835Z,5.03
2022-10-28T08:32:32.943Z,5.13
2022-10-28T08:34:59.761Z,5.30
2022-10-28T08:37:26.758Z,5.28
2022-10-28T08:39:53.632Z,4.93
2022-10-28T08:42:46.689Z,5.45
2022-10-28T08:45:25.514Z,5.47
2022-10-28T08:48:05.405Z,5.55
2022-10-28T08:50:35.253Z,4.88
2022-10-28T08:53:10.273Z,5.15
2022-10-28T08:55:42.232Z,5.50
2022-10-28T08:58:16.445Z,4.80
2022-10-28T09:00:46.850Z,5.05
2022-10-28T09:03:22.383Z,5.40
2022-10-28T09:05:54.382Z,6.15
2022-10-28T09:08:26.300Z,4.78
2022-10-28T09:11:27.286Z,4.93
2022-10-28T09:14:32.079Z,4.43
2022-10-28T09:17:07.496Z,4.30
2022-10-28T09:19:49.756Z,4.05
2022-10-28T09:22:24.440Z,4.18
2022-10-28T09:24:54.490Z,4.53
2022-10-28T09:27:30.643Z,5.03
2022-10-28T09:30:16.026Z,4.53
2022-10-28T09:33:08.624Z,4.60
2022-10-28T09:35:43.732Z,4.30
2022-10-28T09:38:31.621Z,4.88
2022-10-28T09:41:04.548Z,3.88
2022-10-28T09:43:35.322Z,3.85
2022-10-28T09:46:08.217Z,4.25
2022-10-28T09:48:40.056Z,4.00
2022-10-28T09:51:07.438Z,3.70
2022-10-28T09:53:52.568Z,3.90
2022-10-28T09:56:19.538Z,3.78
2022-10-28T09:58:47.774Z,3.72
2022-10-28T10:01:17.768Z,3.60
2022-10-28T10:03:47.790Z,3.53
2022-10-28T10:06:29.336Z,3.53
2022-10-28T10:08:57.243Z,3.97
2022-10-28T10:11:44.843Z,3.03
2022-10-28T10:14:21.990Z,3.42
2022-10-28T10:16:59.176Z,3.30
2022-10-28T10:19:26.115Z,2.60
2022-10-28T10:21:54.647Z,2.95
2022-10-28T10:24:24.388Z,2.95
2022-10-28T10:26:52.310Z,3.42
2022-10-28T10:29:20.260Z,3.47
2022-10-28T10:31:48.205Z,3.22
2022-10-28T10:34:25.485Z,2.45
2022-10-28T10:36:55.831Z,2.30
2022-10-28T10:39:36.538Z,2.90
2022-10-28T10:42:03.536Z,2.83
2022-10-28T10:44:35.389Z,2.42
2022-10-28T10:47:06.735Z,2.90
2022-10-28T10:49:35.088Z,2.95
2022-10-28T10:52:04.788Z,2.60
2022-10-28T10:54:33.209Z,2.63
2022-10-28T10:57:21.002Z,2.58
2022-10-28T10:59:52.104Z,2.67
2022-10-28T11:02:27.464Z,2.25
2022-10-28T11:04:59.878Z,3.05
2022-10-28T11:07:28.345Z,2.45
2022-10-28T11:09:56.045Z,2.72
2022-10-28T11:12:26.065Z,3.00
2022-10-28T11:14:58.553Z,2.30
2022-10-28T11:20:25.490Z,2.75
2022-10-28T11:23:10.419Z,2.88
2022-10-28T11:25:41.715Z,2.22
2022-10-28T11:28:23.789Z,2.42
2022-10-28T11:31:09.258Z,1.95
2022-10-28T11:33:39.189Z,2.80
2022-10-28T11:36:16.252Z,1.88
2022-10-28T11:38:51.226Z,2.30
2022-10-28T11:41:43.043Z,2.83
2022-10-28T11:44:35.959Z,3.85
2022-10-28T11:47:08.753Z,2.83
2022-10-28T11:49:59.296Z,2.47
2022-10-28T11:52:31.948Z,2.25
2022-10-28T11:55:19.853Z,2.90
2022-10-28T11:58:03.713Z,2.15
2022-10-28T12:00:56.737Z,2.38
2022-10-28T12:03:40.788Z,2.25
2022-10-28T12:06:22.922Z,2.25
2022-10-28T12:09:10.871Z,2.20
2022-10-28T12:11:58.244Z,2.50
2022-10-28T12:14:46.000Z,2.35
2022-10-28T12:17:19.725Z,1.90
2022-10-28T12:20:01.289Z,2.35
2022-10-28T12:23:01.222Z,1.67
2022-10-28T12:25:31.036Z,2.40
2022-10-28T12:28:03.441Z,2.03
2022-10-28T12:30:33.037Z,2.13
2022-10-28T12:33:07.849Z,2.25
2022-10-28T12:35:39.413Z,2.15
2022-10-28T12:38:34.305Z,2.00
2022-10-28T12:41:14.057Z,2.70
2022-10-28T12:44:00.244Z,2.47
2022-10-28T12:46:44.973Z,2.90
2022-10-28T12:49:20.810Z,2.58
2022-10-28T12:51:47.645Z,2.45
2022-10-28T12:54:15.114Z,2.13
2022-10-28T12:56:50.762Z,2.22
2022-10-28T12:59:33.702Z,2.75
2022-10-28T13:02:02.952Z,2.13
2022-10-28T13:04:30.117Z,2.83
2022-10-28T13:07:11.158Z,2.47
2022-10-28T13:09:56.649Z,2.22
2022-10-28T13:12:45.074Z,2.10
2022-10-28T13:15:31.861Z,2.83
2022-10-28T13:18:16.143Z,3.15
2022-10-28T13:20:52.793Z,2.65
2022-10-28T13:23:40.937Z,2.47
2022-10-28T13:26:22.318Z,2.97
2022-10-28T13:28:53.586Z,2.38
2022-10-28T13:31:21.086Z,2.45
2022-10-28T13:34:00.091Z,2.33
2022-10-28T13:36:30.665Z,2.63
2022-10-28T13:39:00.425Z,3.67
2022-10-28T13:41:33.733Z,2.90
2022-10-28T13:44:09.790Z,3.15
2022-10-28T13:46:55.403Z,3.03
2022-10-28T13:49:35.796Z,2.88
2022-10-28T13:52:12.074Z,3.13
2022-10-28T13:54:44.855Z,4.85
2022-10-28T13:57:24.126Z,3.22
2022-10-28T13:59:57.400Z,3.88
2022-10-28T14:02:35.359Z,3.78
2022-10-28T14:05:12.581Z,3.03
2022-10-28T14:07:56.071Z,3.10
2022-10-28T14:10:38.151Z,3.13
2022-10-28T14:13:19.110Z,3.20
2022-10-28T14:15:48.352Z,3.28
2022-10-28T14:18:41.393Z,3.65
2022-10-28T14:21:02.533Z,3.20
2022-10-28T14:23:29.358Z,3.45
2022-10-28T14:25:59.786Z,3.35
2022-10-28T14:28:32.296Z,3.75
2022-10-28T14:31:08.113Z,3.58
2022-10-28T14:33:37.126Z,3.88
2022-10-28T14:36:19.780Z,4.13
2022-10-28T14:39:24.275Z,3.20
2022-10-28T14:41:51.119Z,3.83
2022-10-28T14:44:36.519Z,3.63
2022-10-28T14:47:06.375Z,4.20
2022-10-28T14:49:36.694Z,3.40
2022-10-28T14:52:19.255Z,3.60
2022-10-28T14:54:55.898Z,3.28
2022-10-28T14:57:33.890Z,3.72
2022-10-28T15:00:06.856Z,3.67
2022-10-28T15:02:36.312Z,3.70
2022-10-28T15:05:15.526Z,3.00
2022-10-28T15:07:43.247Z,3.35
2022-10-28T15:10:31.246Z,3.22
2022-10-28T15:12:58.874Z,3.10
2022-10-28T15:15:35.197Z,3.25
2022-10-28T15:18:02.049Z,3.17
2022-10-28T15:20:31.709Z,3.20
2022-10-28T15:23:22.470Z,3.45
2022-10-28T15:26:10.247Z,3.30
2022-10-28T15:28:38.026Z,2.75
2022-10-28T15:31:05.052Z,3.13
2022-10-28T15:33:37.259Z,3.33
2022-10-28T15:36:18.571Z,3.05
2022-10-28T15:38:48.518Z,3.13
2022-10-28T15:41:40.445Z,3.42
2022-10-28T15:44:33.792Z,3.60
2022-10-28T15:47:07.207Z,2.95
2022-10-28T15:49:40.302Z,3.45
2022-10-28T15:52:27.515Z,3.25
2022-10-28T15:54:56.087Z,2.97
2022-10-28T15:57:31.072Z,3.50
2022-10-28T16:00:27.006Z,3.35
2022-10-28T16:03:01.323Z,3.50
2022-10-28T16:05:34.281Z,3.20
2022-10-28T16:08:03.863Z,3.38
2022-10-28T16:10:36.279Z,3.40
2022-10-28T16:13:09.123Z,2.97
2022-10-28T16:15:48.124Z,3.28
2022-10-28T16:18:15.265Z,3.83
2022-10-28T16:20:45.070Z,3.35
2022-10-28T16:23:17.105Z,2.53
2022-10-28T16:25:44.064Z,3.72
2022-10-28T16:28:21.409Z,3.90
2022-10-28T16:30:54.756Z,3.58
2022-10-28T16:33:37.314Z,3.75
2022-10-28T16:36:04.294Z,3.08
2022-10-28T16:38:32.217Z,3.60
2022-10-28T16:41:00.805Z,3.42
2022-10-28T16:43:29.095Z,3.60
2022-10-28T16:45:58.315Z,4.10
2022-10-28T16:48:29.963Z,6.35
2022-10-28T16:51:01.504Z,7.30
2022-10-28T16:53:28.778Z,4.13
2022-10-28T16:55:59.234Z,5.60
2022-10-28T16:58:27.951Z,5.93
2022-10-28T17:00:55.721Z,4.40
2022-10-28T17:03:23.113Z,3.85
2022-10-28T17:05:50.041Z,3.97
2022-10-28T17:08:26.288Z,3.83
2022-10-28T17:11:04.764Z,4.35
2022-10-28T17:13:31.700Z,4.63
2022-10-28T17:15:58.550Z,4.10
2022-10-28T17:18:25.451Z,4.20
2022-10-28T17:21:03.082Z,4.25
2022-10-28T17:23:29.995Z,4.60
2022-10-28T17:26:02.128Z,4.00
2022-10-28T17:28:29.225Z,4.88
2022-10-28T17:31:05.558Z,4.18
2022-10-28T17:33:32.775Z,3.90
2022-10-28T17:36:08.676Z,4.05
2022-10-28T17:38:36.006Z,4.82
2022-10-28T17:41:02.957Z,6.25
2022-10-28T17:43:29.897Z,7.20
2022-10-28T17:46:04.564Z,7.50
2022-10-28T17:48:31.528Z,6.35
2022-10-28T17:50:58.347Z,5.45
2022-10-28T17:53:25.193Z,5.38
2022-10-28T17:55:59.435Z,5.07
2022-10-28T17:58:26.736Z,4.80
2022-10-28T18:01:01.987Z,10.77
2022-10-28T18:03:32.845Z,12.80
2022-10-28T18:06:05.590Z,13.68
2022-10-28T18:08:34.123Z,10.38
2022-10-28T18:11:01.042Z,5.80
2022-10-28T18:13:33.551Z,6.18
2022-10-28T18:16:05.235Z,6.03
2022-10-28T18:18:36.040Z,6.22
2022-10-28T18:21:08.833Z,5.22
2022-10-28T18:23:35.764Z,5.75
2022-10-28T18:26:07.120Z,5.57
2022-10-28T18:28:35.870Z,5.35
2022-10-28T18:31:03.515Z,5.00
2022-10-28T18:33:30.708Z,4.85
2022-10-28T18:36:09.116Z,5.80
2022-10-28T18:38:36.096Z,6.72
2022-10-28T18:41:02.958Z,5.65
2022-10-28T18:43:30.140Z,5.60
2022-10-28T18:46:02.228Z,5.15
2022-10-28T18:48:30.379Z,6.25
2022-10-28T18:50:58.888Z,5.75
2022-10-28T18:53:26.504Z,5.70
2022-10-28T18:55:59.042Z,6.55
2022-10-28T18:58:26.795Z,7.43
2022-10-28T19:00:53.738Z,8.23
2022-10-28T19:03:24.024Z,6.88
2022-10-28T19:05:50.838Z,6.32
2022-10-28T19:08:17.904Z,11.30
2022-10-28T19:10:44.751Z,8.82
2022-10-28T19:13:11.772Z,7.35
2022-10-28T19:15:42.123Z,5.80
2022-10-28T19:18:08.973Z,5.35
2022-10-28T19:20:35.865Z,5.25
2022-10-28T19:23:02.721Z,5.65
2022-10-28T19:25:29.798Z,5.65
2022-10-28T19:27:58.770Z,5.20
2022-10-28T19:30:25.859Z,5.47
2022-10-28T19:32:52.984Z,4.70
2022-10-28T19:35:20.392Z,5.53
2022-10-28T19:37:47.326Z,5.95
2022-10-28T19:40:14.262Z,6.85
2022-10-28T19:42:41.355Z,6.78
2022-10-28T19:45:09.167Z,8.48
2022-10-28T19:47:36.177Z,6.20
2022-10-28T19:50:03.253Z,7.63
2022-10-28T19:52:30.195Z,6.40
2022-10-28T19:54:57.187Z,5.20
2022-10-28T19:57:24.110Z,5.93
2022-10-28T19:59:51.374Z,6.78
2022-10-28T20:02:18.281Z,6.30
2022-10-28T20:04:45.354Z,6.47
2022-10-28T20:07:12.206Z,6.00
2022-10-28T20:09:39.073Z,6.05
2022-10-28T20:12:06.170Z,5.88
2022-10-28T20:14:33.219Z,5.55
2022-10-28T20:17:05.514Z,6.32
2022-10-28T20:19:33.692Z,5.57
2022-10-28T20:22:00.544Z,5.95
2022-10-28T20:24:27.424Z,6.38
2022-10-28T20:26:54.270Z,6.03
2022-10-28T20:29:21.090Z,6.40
2022-10-28T20:31:48.049Z,5.75
2022-10-28T20:34:14.846Z,5.40
2022-10-28T20:36:45.906Z,6.00
2022-10-28T20:39:15.445Z,5.28
2022-10-28T20:41:44.000Z,5.95
2022-10-28T20:44:11.240Z,6.00
2022-10-28T20:46:38.456Z,6.20
2022-10-28T20:49:06.229Z,6.28
2022-10-28T20:51:33.740Z,6.05
2022-10-28T20:54:01.988Z,6.25
2022-10-28T20:56:33.870Z,5.43
2022-10-28T20:59:00.915Z,5.50
2022-10-28T21:01:33.793Z,5.90
2022-10-28T21:04:03.992Z,5.57
2022-10-28T21:06:31.268Z,6.18
2022-10-28T21:08:59.160Z,6.07
2022-10-28T21:11:27.778Z,5.88
2022-10-28T21:13:57.485Z,6.05
2022-10-28T21:16:24.926Z,5.93
2022-10-28T21:18:52.402Z,5.32
2022-10-28T21:21:20.522Z,5.50
2022-10-28T21:23:47.475Z,5.65
2022-10-28T21:26:14.778Z,5.65
2022-10-28T21:28:41.891Z,4.93
2022-10-28T21:31:14.111Z,6.05
2022-10-28T21:33:42.334Z,7.13
2022-10-28T21:36:20.304Z,6.47
2022-10-28T21:38:47.327Z,6.40
2022-10-28T21:41:15.824Z,6.00
2022-10-28T21:43:44.952Z,6.35
2022-10-28T21:46:11.891Z,5.75
2022-10-28T21:48:38.883Z,6.53
2022-10-28T21:51:14.723Z,5.60
2022-10-28T21:53:44.123Z,6.05
2022-10-28T21:56:17.665Z,5.82
2022-10-28T21:58:46.666Z,6.40
2022-10-28T22:01:16.077Z,5.82
2022-10-28T22:03:43.168Z,6.68
2022-10-28T22:06:10.342Z,6.15
2022-10-28T22:08:37.294Z,6.30
2022-10-28T22:11:16.124Z,6.43
2022-10-28T22:13:43.669Z,6.60
2022-10-28T22:16:13.016Z,6.72
2022-10-28T22:18:40.266Z,6.22
2022-10-28T22:21:19.826Z,7.10
2022-10-28T22:23:47.484Z,5.72
2022-10-28T22:26:20.206Z,6.75
2022-10-28T22:28:47.558Z,6.88
2022-10-28T22:31:17.969Z,6.88
2022-10-28T22:36:22.885Z,7.03
2022-10-28T22:38:50.396Z,6.72
2022-10-28T22:41:28.462Z,6.00
2022-10-28T22:43:57.622Z,6.65
2022-10-28T22:46:26.289Z,6.18
2022-10-28T22:48:53.559Z,5.72
2022-10-28T22:51:21.225Z,5.90
2022-10-28T22:53:48.771Z,6.55
2022-10-28T22:56:20.312Z,6.82
2022-10-28T22:58:48.204Z,6.55
2022-10-28T23:01:18.362Z,6.00
2022-10-28T23:03:47.432Z,6.38
2022-10-28T23:06:16.910Z,6.65
2022-10-28T23:08:47.572Z,7.32
2022-10-28T23:11:16.060Z,6.45
2022-10-28T23:13:43.301Z,6.20
2022-10-28T23:16:12.441Z,6.03
2022-10-28T23:18:39.964Z,6.22
2022-10-28T23:21:21.631Z,5.75
2022-10-28T23:23:56.769Z,5.53
2022-10-28T23:26:25.288Z,5.80
2022-10-28T23:28:53.985Z,6.75
2022-10-28T23:31:22.111Z,6.53
2022-10-28T23:33:49.043Z,5.70
2022-10-28T23:36:16.839Z,6.20
2022-10-28T23:38:43.912Z,6.70
2022-10-28T23:41:15.886Z,6.43
2022-10-28T23:43:43.064Z,6.03
2022-10-28T23:46:10.335Z,5.57
2022-10-28T23:48:37.907Z,6.78
2022-10-28T23:51:05.050Z,7.18
2022-10-28T23:53:31.925Z,6.45
2022-10-28T23:55:58.927Z,5.57
2022-10-28T23:58:26.089Z,5.70
